createdAt,value
2023-04-25T00:01:48.967Z,101089.66
2023-04-25T00:04:22.996Z,101090.00
2023-04-25T00:06:55.966Z,101096.38
2023-04-25T00:09:28.848Z,101097.97
2023-04-25T00:12:02.950Z,101093.22
2023-04-25T00:14:36.460Z,101090.13
2023-04-25T00:17:09.161Z,101087.91
2023-04-25T00:19:41.782Z,101092.25
2023-04-25T00:22:14.605Z,101093.56
2023-04-25T00:24:47.157Z,101098.69
2023-04-25T00:27:21.081Z,101097.38
2023-04-25T00:29:53.671Z,101100.47
2023-04-25T00:32:26.393Z,101098.41
2023-04-25T00:34:59.649Z,101104.16
2023-04-25T00:37:32.505Z,101106.38
2023-04-25T00:40:07.365Z,101111.56
2023-04-25T00:42:42.640Z,101102.06
2023-04-25T00:45:16.225Z,101105.13
2023-04-25T00:47:49.524Z,101098.84
2023-04-25T00:50:22.102Z,101105.75
2023-04-25T00:52:54.873Z,101112.72
2023-04-25T00:55:27.477Z,101108.19
2023-04-25T00:58:01.456Z,101107.59
2023-04-25T01:00:34.092Z,101112.81
2023-04-25T01:03:06.842Z,101110.75
2023-04-25T01:05:42.622Z,101114.16
2023-04-25T01:08:15.916Z,101110.44
2023-04-25T01:10:48.518Z,101113.00
2023-04-25T01:13:22.970Z,101109.09
2023-04-25T01:15:56.709Z,101114.47
2023-04-25T01:18:29.314Z,101111.47
2023-04-25T01:21:08.246Z,101112.28
2023-04-25T01:23:41.837Z,101113.06
2023-04-25T01:26:15.050Z,101113.78
2023-04-25T01:28:48.079Z,101119.94
2023-04-25T01:31:21.484Z,101119.53
2023-04-25T01:33:54.299Z,101137.09
2023-04-25T01:36:29.048Z,101132.22
2023-04-25T01:39:02.085Z,101134.88
2023-04-25T01:41:35.441Z,101138.13
2023-04-25T01:44:08.519Z,101137.44
2023-04-25T01:46:42.230Z,101140.06
2023-04-25T01:49:14.785Z,101137.88
2023-04-25T01:51:50.882Z,101138.25
2023-04-25T01:54:23.576Z,101142.44
2023-04-25T01:56:59.053Z,101139.91
2023-04-25T01:59:31.686Z,101138.31
2023-04-25T02:02:13.425Z,101138.94
2023-04-25T02:04:46.496Z,101146.44
2023-04-25T02:07:20.906Z,101141.22
2023-04-25T02:09:57.385Z,101144.06
2023-04-25T02:12:30.502Z,101150.34
2023-04-25T02:15:23.003Z,101140.00
2023-04-25T02:17:58.916Z,101147.75
2023-04-25T02:20:32.436Z,101144.22
2023-04-25T02:23:06.369Z,101146.94
2023-04-25T02:25:39.004Z,101134.88
2023-04-25T02:28:11.608Z,101139.53
2023-04-25T02:30:44.261Z,101145.53
2023-04-25T02:33:17.990Z,101146.25
2023-04-25T02:35:50.785Z,101143.97
2023-04-25T02:38:24.695Z,101151.81
2023-04-25T02:40:57.382Z,101143.09
2023-04-25T02:43:32.325Z,101143.88
2023-04-25T02:46:05.420Z,101140.63
2023-04-25T02:48:37.972Z,101150.75
2023-04-25T02:51:10.560Z,101137.88
2023-04-25T02:53:44.465Z,101136.72
2023-04-25T02:56:17.140Z,101141.41
2023-04-25T02:58:49.778Z,101149.63
2023-04-25T03:01:22.594Z,101154.28
2023-04-25T03:03:55.732Z,101145.00
2023-04-25T03:06:28.593Z,101147.66
2023-04-25T03:09:02.605Z,101145.19
2023-04-25T03:11:35.233Z,101145.91
2023-04-25T03:14:07.908Z,101159.41
2023-04-25T03:16:40.648Z,101147.66
2023-04-25T03:19:13.191Z,101152.25
2023-04-25T03:21:45.917Z,101155.44
2023-04-25T03:24:20.309Z,101153.63
2023-04-25T03:26:53.061Z,101158.06
2023-04-25T03:29:27.487Z,101155.91
2023-04-25T03:32:01.592Z,101160.72
2023-04-25T03:34:34.343Z,101158.31
2023-04-25T03:37:07.023Z,101165.19
2023-04-25T03:39:45.083Z,101170.53
2023-04-25T03:42:17.774Z,101181.47
2023-04-25T03:44:51.056Z,101190.81
2023-04-25T03:47:23.805Z,101191.53
2023-04-25T03:49:56.699Z,101200.81
2023-04-25T03:52:29.787Z,101182.09
2023-04-25T03:55:03.857Z,101177.13
2023-04-25T03:57:36.598Z,101177.56
2023-04-25T04:00:10.199Z,101180.31
2023-04-25T04:02:48.610Z,101178.72
2023-04-25T04:05:21.474Z,101184.19
2023-04-25T04:07:59.662Z,101182.59
2023-04-25T04:10:34.561Z,101183.03
2023-04-25T04:13:07.114Z,101187.25
2023-04-25T04:15:39.684Z,101192.16
2023-04-25T04:18:12.242Z,101186.34
2023-04-25T04:20:45.293Z,101190.22
2023-04-25T04:23:18.329Z,101194.91
2023-04-25T04:25:53.220Z,101193.91
2023-04-25T04:28:36.731Z,101194.59
2023-04-25T04:31:21.305Z,101190.56
2023-04-25T04:33:54.151Z,101195.13
2023-04-25T04:36:27.504Z,101197.59
2023-04-25T04:39:04.665Z,101198.88
2023-04-25T04:41:58.800Z,101202.09
2023-04-25T04:44:46.459Z,101202.28
2023-04-25T04:47:42.397Z,101209.81
2023-04-25T04:50:22.207Z,101209.03
2023-04-25T04:53:13.498Z,101215.28
2023-04-25T04:56:06.743Z,101210.97
2023-04-25T04:59:02.856Z,101221.00
2023-04-25T05:01:41.608Z,101219.06
2023-04-25T05:04:29.307Z,101225.34
2023-04-25T05:07:22.010Z,101229.00
2023-04-25T05:10:24.766Z,101235.84
2023-04-25T05:13:03.824Z,101243.69
2023-04-25T05:15:56.585Z,101256.22
2023-04-25T05:18:55.092Z,101253.38
2023-04-25T05:21:35.346Z,101264.19
2023-04-25T05:24:26.475Z,101270.59
2023-04-25T05:27:18.335Z,101272.31
2023-04-25T05:30:13.438Z,101276.19
2023-04-25T05:33:22.827Z,101290.63
2023-04-25T05:35:55.548Z,101294.59
2023-04-25T05:38:28.937Z,101291.53
2023-04-25T05:41:27.650Z,101294.59
2023-04-25T05:44:07.563Z,101291.19
2023-04-25T05:47:06.392Z,101291.88
2023-04-25T05:50:10.611Z,101299.34
2023-04-25T05:53:09.846Z,101303.25
2023-04-25T05:55:45.960Z,101299.00
2023-04-25T05:58:30.322Z,101302.31
2023-04-25T06:01:04.732Z,101306.53
2023-04-25T06:03:39.015Z,101312.78
2023-04-25T06:06:13.289Z,101326.25
2023-04-25T06:08:45.901Z,101341.00
2023-04-25T06:11:18.425Z,101329.06
2023-04-25T06:13:51.504Z,101335.75
2023-04-25T06:16:26.906Z,101333.59
2023-04-25T06:18:59.632Z,101332.59
2023-04-25T06:21:33.693Z,101332.22
2023-04-25T06:24:06.463Z,101339.41
2023-04-25T06:26:41.491Z,101338.97
2023-04-25T06:29:14.258Z,101335.88
2023-04-25T06:31:47.192Z,101343.72
2023-04-25T06:34:19.873Z,101340.06
2023-04-25T06:36:53.768Z,101343.16
2023-04-25T06:39:27.449Z,101337.09
2023-04-25T06:42:01.491Z,101347.34
2023-04-25T06:44:59.878Z,101354.38
2023-04-25T06:47:34.934Z,101345.75
2023-04-25T06:50:08.788Z,101358.75
2023-04-25T06:52:43.735Z,101348.94
2023-04-25T06:55:16.753Z,101354.91
2023-04-25T06:58:07.359Z,101366.28
2023-04-25T07:00:57.391Z,101360.47
2023-04-25T07:03:32.330Z,101372.88
2023-04-25T07:06:09.762Z,101360.06
2023-04-25T07:08:43.690Z,101381.97
2023-04-25T07:11:17.298Z,101373.53
2023-04-25T07:13:49.925Z,101384.16
2023-04-25T07:16:22.628Z,101386.16
2023-04-25T07:18:55.431Z,101396.34
2023-04-25T07:21:28.108Z,101395.84
2023-04-25T07:24:03.469Z,101393.63
2023-04-25T07:27:27.644Z,101400.72
2023-04-25T07:30:05.310Z,101395.25
2023-04-25T07:32:38.123Z,101403.97
2023-04-25T07:35:10.907Z,101407.72
2023-04-25T07:41:17.620Z,101406.66
2023-04-25T07:43:50.286Z,101410.03
2023-04-25T07:46:23.251Z,101406.72
2023-04-25T07:48:55.797Z,101415.31
2023-04-25T07:51:28.772Z,101423.13
2023-04-25T07:54:06.273Z,101422.72
2023-04-25T07:56:52.173Z,101427.00
2023-04-25T07:59:29.853Z,101434.97
2023-04-25T08:02:04.488Z,101444.59
2023-04-25T08:04:37.418Z,101440.41
2023-04-25T08:07:13.927Z,101433.28
2023-04-25T08:09:56.396Z,101439.19
2023-04-25T08:12:34.844Z,101456.19
2023-04-25T08:15:08.569Z,101467.47
2023-04-25T08:17:44.985Z,101466.75
2023-04-25T08:20:18.739Z,101468.63
2023-04-25T08:22:51.574Z,101469.34
2023-04-25T08:25:37.040Z,101483.06
2023-04-25T08:28:11.824Z,101481.34
2023-04-25T08:30:44.985Z,101478.88
2023-04-25T08:33:19.777Z,101480.91
2023-04-25T08:36:05.445Z,101490.47
2023-04-25T08:38:38.596Z,101495.66
2023-04-25T08:41:16.282Z,101506.13
2023-04-25T08:43:50.642Z,101517.38
2023-04-25T08:46:23.586Z,101525.91
2023-04-25T08:49:10.002Z,101519.09
2023-04-25T08:51:48.807Z,101521.53
2023-04-25T08:54:35.608Z,101532.84
2023-04-25T08:57:11.694Z,101561.22
2023-04-25T08:59:46.983Z,101561.97
2023-04-25T09:02:21.844Z,101547.13
2023-04-25T09:04:57.103Z,101547.13
2023-04-25T09:07:29.795Z,101540.03
2023-04-25T09:10:04.359Z,101553.31
2023-04-25T09:12:40.708Z,101545.97
2023-04-25T09:17:57.676Z,101543.22
2023-04-25T09:20:35.226Z,101548.09
2023-04-25T09:23:08.278Z,101557.63
2023-04-25T09:25:44.374Z,101556.84
2023-04-25T09:28:16.961Z,101559.50
2023-04-25T09:30:51.093Z,101569.41
2023-04-25T09:33:29.797Z,101567.06
2023-04-25T09:36:06.809Z,101563.03
2023-04-25T09:38:51.754Z,101568.41
2023-04-25T09:41:29.003Z,101573.25
2023-04-25T09:44:05.917Z,101567.75
2023-04-25T09:46:43.263Z,101578.88
2023-04-25T09:49:24.449Z,101586.97
2023-04-25T09:52:15.843Z,101586.59
2023-04-25T09:54:57.599Z,101598.56
2023-04-25T09:57:40.615Z,101594.31
2023-04-25T10:00:14.688Z,101603.34
2023-04-25T10:02:49.356Z,101603.28
2023-04-25T10:05:49.148Z,101601.44
2023-04-25T10:08:24.683Z,101610.03
2023-04-25T10:10:57.316Z,101620.03
2023-04-25T10:13:30.617Z,101617.03
2023-04-25T10:16:05.685Z,101614.41
2023-04-25T10:18:39.600Z,101612.81
2023-04-25T10:21:12.504Z,101616.44
2023-04-25T10:23:46.539Z,101623.63
2023-04-25T10:26:19.294Z,101616.75
2023-04-25T10:28:58.090Z,101626.41
2023-04-25T10:31:34.398Z,101634.66
2023-04-25T10:34:11.553Z,101629.69
2023-04-25T10:36:44.245Z,101630.81
2023-04-25T10:39:23.496Z,101616.03
2023-04-25T10:41:58.114Z,101618.16
2023-04-25T10:44:31.114Z,101618.22
2023-04-25T10:47:06.595Z,101631.25
2023-04-25T10:49:43.643Z,101619.06
2023-04-25T10:52:17.294Z,101631.69
2023-04-25T10:54:51.166Z,101638.84
2023-04-25T10:57:30.758Z,101629.84
2023-04-25T11:00:07.167Z,101636.59
2023-04-25T11:02:42.470Z,101640.16
2023-04-25T11:05:22.542Z,101647.25
2023-04-25T11:08:06.328Z,101641.81
2023-04-25T11:10:42.132Z,101644.72
2023-04-25T11:13:15.456Z,101649.88
2023-04-25T11:16:03.054Z,101649.13
2023-04-25T11:18:44.901Z,101658.34
2023-04-25T11:21:19.012Z,101652.81
2023-04-25T11:23:51.734Z,101652.00
2023-04-25T11:26:24.671Z,101656.84
2023-04-25T11:29:01.251Z,101661.63
2023-04-25T11:31:33.960Z,101655.34
2023-04-25T11:34:06.562Z,101654.91
2023-04-25T11:36:40.806Z,101652.22
2023-04-25T11:39:13.329Z,101656.25
2023-04-25T11:41:46.087Z,101659.38
2023-04-25T11:44:18.957Z,101657.00
2023-04-25T11:46:51.530Z,101664.97
2023-04-25T11:49:25.752Z,101666.94
2023-04-25T11:51:59.904Z,101673.25
2023-04-25T11:54:32.455Z,101672.50
2023-04-25T11:57:06.171Z,101678.47
2023-04-25T11:59:38.773Z,101681.66
2023-04-25T12:02:25.753Z,101685.19
2023-04-25T12:05:07.872Z,101677.72
2023-04-25T12:07:55.000Z,101673.75
2023-04-25T12:10:28.133Z,101682.47
2023-04-25T12:13:01.384Z,101686.03
2023-04-25T12:15:35.617Z,101684.84
2023-04-25T12:18:08.585Z,101691.19
2023-04-25T12:20:41.225Z,101688.84
2023-04-25T12:23:15.185Z,101694.41
2023-04-25T12:25:48.189Z,101692.78
2023-04-25T12:28:21.945Z,101688.03
2023-04-25T12:30:58.426Z,101702.28
2023-04-25T12:33:32.014Z,101699.13
2023-04-25T12:36:09.457Z,101700.72
2023-04-25T12:38:43.778Z,101704.28
2023-04-25T12:41:16.252Z,101706.25
2023-04-25T12:43:48.921Z,101711.81
2023-04-25T12:46:21.529Z,101700.69
2023-04-25T12:48:54.121Z,101712.56
2023-04-25T12:51:28.678Z,101708.59
2023-04-25T12:54:02.797Z,101706.59
2023-04-25T12:56:35.332Z,101711.31
2023-04-25T12:59:07.879Z,101709.75
2023-04-25T13:01:40.630Z,101714.09
2023-04-25T13:04:13.453Z,101721.66
2023-04-25T13:06:45.972Z,101714.50
2023-04-25T13:09:19.864Z,101721.97
2023-04-25T13:11:54.804Z,101716.06
2023-04-25T13:14:28.860Z,101721.59
2023-04-25T13:17:01.911Z,101718.06
2023-04-25T13:19:34.562Z,101714.88
2023-04-25T13:22:07.138Z,101728.34
2023-04-25T13:24:41.077Z,101720.38
2023-04-25T13:27:14.065Z,101723.91
2023-04-25T13:29:46.655Z,101724.69
2023-04-25T13:32:19.193Z,101735.00
2023-04-25T13:34:53.916Z,101728.28
2023-04-25T13:37:26.574Z,101739.78
2023-04-25T13:40:00.853Z,101740.22
2023-04-25T13:42:34.015Z,101745.72
2023-04-25T13:45:07.549Z,101739.41
2023-04-25T13:47:40.289Z,101735.47
2023-04-25T13:50:13.163Z,101738.66
2023-04-25T13:52:45.982Z,101721.97
2023-04-25T13:55:20.059Z,101733.88
2023-04-25T13:57:52.763Z,101738.63
2023-04-25T14:00:25.377Z,101737.00
2023-04-25T14:02:58.097Z,101741.72
2023-04-25T14:05:30.704Z,101737.03
2023-04-25T14:08:03.239Z,101742.56
2023-04-25T14:10:37.791Z,101738.19
2023-04-25T14:13:10.959Z,101744.13
2023-04-25T14:15:43.639Z,101739.75
2023-04-25T14:18:16.148Z,101745.28
2023-04-25T14:20:48.902Z,101752.81
2023-04-25T14:23:21.394Z,101741.72
2023-04-25T14:25:55.463Z,101748.84
2023-04-25T14:28:28.048Z,101743.69
2023-04-25T14:31:01.595Z,101749.66
2023-04-25T14:33:34.268Z,101752.44
2023-04-25T14:36:07.545Z,101755.97
2023-04-25T14:38:40.098Z,101755.56
2023-04-25T14:41:13.963Z,101761.13
2023-04-25T14:43:46.459Z,101762.34
2023-04-25T14:46:19.109Z,101754.38
2023-04-25T14:48:51.851Z,101762.38
2023-04-25T14:51:24.476Z,101759.22
2023-04-25T14:53:57.218Z,101759.22
2023-04-25T14:56:31.471Z,101763.16
2023-04-25T14:59:04.157Z,101760.34
2023-04-25T15:01:37.101Z,101754.38
2023-04-25T15:04:09.963Z,101763.06
2023-04-25T15:06:42.716Z,101754.34
2023-04-25T15:09:17.213Z,101762.28
2023-04-25T15:11:51.180Z,101771.00
2023-04-25T15:14:23.748Z,101771.41
2023-04-25T15:16:56.622Z,101768.63
2023-04-25T15:19:29.175Z,101765.47
2023-04-25T15:22:02.387Z,101774.25
2023-04-25T15:24:35.014Z,101782.94
2023-04-25T15:27:09.361Z,101777.81
2023-04-25T15:29:42.604Z,101782.19
2023-04-25T15:32:15.286Z,101775.84
2023-04-25T15:34:47.887Z,101781.00
2023-04-25T15:37:20.541Z,101778.22
2023-04-25T15:40:02.080Z,101783.78
2023-04-25T15:42:36.159Z,101782.13
2023-04-25T15:45:09.368Z,101788.88
2023-04-25T15:47:42.036Z,101787.72
2023-04-25T15:50:15.787Z,101796.47
2023-04-25T15:52:49.415Z,101796.50
2023-04-25T15:55:22.427Z,101799.72
2023-04-25T15:57:56.314Z,101794.19
2023-04-25T16:00:29.177Z,101800.53
2023-04-25T16:03:01.949Z,101806.47
2023-04-25T16:05:34.583Z,101805.28
2023-04-25T16:08:07.137Z,101808.88
2023-04-25T16:10:39.729Z,101807.28
2023-04-25T16:13:13.650Z,101813.63
2023-04-25T16:15:46.137Z,101797.38
2023-04-25T16:18:18.986Z,101801.34
2023-04-25T16:20:51.616Z,101806.91
2023-04-25T16:23:24.235Z,101803.72
2023-04-25T16:25:56.801Z,101817.97
2023-04-25T16:28:31.124Z,101804.50
2023-04-25T16:31:03.718Z,101802.88
2023-04-25T16:33:36.729Z,101800.06
2023-04-25T16:36:09.595Z,101804.81
2023-04-25T16:38:42.141Z,101805.22
2023-04-25T16:41:14.734Z,101802.78
2023-04-25T16:43:49.035Z,101804.34
2023-04-25T16:46:21.673Z,101810.66
2023-04-25T16:48:54.379Z,101819.34
2023-04-25T16:51:28.130Z,101814.19
2023-04-25T16:54:01.252Z,101815.31
2023-04-25T16:56:33.776Z,101821.25
2023-04-25T16:59:08.285Z,101819.19
2023-04-25T17:01:41.218Z,101819.88
2023-04-25T17:04:13.820Z,101824.56
2023-04-25T17:06:46.432Z,101814.28
2023-04-25T17:09:18.960Z,101808.69
2023-04-25T17:11:51.642Z,101819.38
2023-04-25T17:14:25.670Z,101818.44
2023-04-25T17:16:58.200Z,101827.41
2023-04-25T17:19:31.080Z,101832.91
2023-04-25T17:22:03.641Z,101820.97
2023-04-25T17:24:36.604Z,101825.75
2023-04-25T17:27:09.406Z,101837.41
2023-04-25T17:29:43.334Z,101831.06
2023-04-25T17:32:17.367Z,101832.66
2023-04-25T17:34:50.302Z,101841.72
2023-04-25T17:37:26.802Z,101838.88
2023-04-25T17:39:59.484Z,101839.56
2023-04-25T17:42:32.050Z,101842.28
2023-04-25T17:45:07.080Z,101844.16
2023-04-25T17:47:40.072Z,101841.72
2023-04-25T17:50:16.890Z,101849.50
2023-04-25T17:52:49.416Z,101842.31
2023-04-25T17:55:22.061Z,101846.56
2023-04-25T17:57:54.661Z,101846.56
2023-04-25T18:02:07.449Z,101846.56
2023-04-25T18:04:43.580Z,101842.25
2023-04-25T18:07:19.491Z,101846.22
2023-04-25T18:09:52.290Z,101844.56
2023-04-25T18:12:28.000Z,101845.25
2023-04-25T18:15:01.000Z,101846.69
2023-04-25T18:17:39.963Z,101845.16
2023-04-25T18:20:16.488Z,101847.75
2023-04-25T18:22:49.324Z,101847.31
2023-04-25T18:25:22.003Z,101851.84
2023-04-25T18:27:54.809Z,101851.41
2023-04-25T18:30:27.499Z,101845.69
2023-04-25T18:33:01.673Z,101846.31
2023-04-25T18:35:34.672Z,101849.72
2023-04-25T18:38:07.557Z,101850.47
2023-04-25T18:40:47.134Z,101852.22
2023-04-25T18:43:26.955Z,101853.22
2023-04-25T18:45:59.705Z,101852.75
2023-04-25T18:48:34.350Z,101854.84
2023-04-25T18:51:07.284Z,101849.19
2023-04-25T18:53:39.962Z,101847.47
2023-04-25T18:56:13.619Z,101849.31
2023-04-25T18:58:46.783Z,101854.88
2023-04-25T19:01:19.997Z,101843.53
2023-04-25T19:03:56.607Z,101847.88
2023-04-25T19:06:32.886Z,101848.88
2023-04-25T19:09:06.208Z,101847.72
2023-04-25T19:11:39.563Z,101850.75
2023-04-25T19:14:14.283Z,101855.16
2023-04-25T19:16:47.088Z,101855.53
2023-04-25T19:19:22.056Z,101870.09
2023-04-25T19:21:55.044Z,101865.84
2023-04-25T19:24:27.814Z,101867.44
2023-04-25T19:27:00.719Z,101868.97
2023-04-25T19:29:34.641Z,101871.69
2023-04-25T19:32:08.038Z,101876.13
2023-04-25T19:34:42.738Z,101874.72
2023-04-25T19:37:15.526Z,101876.53
2023-04-25T19:39:48.355Z,101873.25
2023-04-25T19:42:21.217Z,101879.16
2023-04-25T19:44:54.386Z,101878.13
2023-04-25T19:47:28.255Z,101885.03
2023-04-25T19:50:04.370Z,101883.53
2023-04-25T19:52:37.512Z,101887.06
2023-04-25T19:55:11.318Z,101882.19
2023-04-25T19:57:44.136Z,101885.28
2023-04-25T20:00:19.955Z,101880.63
2023-04-25T20:02:53.632Z,101883.84
2023-04-25T20:05:28.035Z,101886.78
2023-04-25T20:08:00.833Z,101882.84
2023-04-25T20:10:33.735Z,101880.50
2023-04-25T20:13:06.473Z,101882.56
2023-04-25T20:15:40.586Z,101887.69
2023-04-25T20:18:13.799Z,101885.59
2023-04-25T20:20:48.158Z,101885.06
2023-04-25T20:23:21.741Z,101889.41
2023-04-25T20:25:54.621Z,101883.91
2023-04-25T20:28:27.721Z,101887.16
2023-04-25T20:31:00.695Z,101886.47
2023-04-25T20:33:33.293Z,101887.16
2023-04-25T20:36:07.609Z,101880.69
2023-04-25T20:38:40.617Z,101890.00
2023-04-25T20:41:13.416Z,101890.03
2023-04-25T20:43:47.161Z,101888.44
2023-04-25T20:46:20.181Z,101886.53
2023-04-25T20:48:53.312Z,101877.41
2023-04-25T20:51:27.671Z,101892.53
2023-04-25T20:54:00.512Z,101883.88
2023-04-25T20:56:33.885Z,101890.16
2023-04-25T20:59:06.546Z,101889.94
2023-04-25T21:01:39.299Z,101886.66
2023-04-25T21:04:12.276Z,101890.75
2023-04-25T21:06:46.599Z,101891.44
2023-04-25T21:09:19.303Z,101891.69
2023-04-25T21:11:52.072Z,101888.03
2023-04-25T21:14:25.515Z,101892.28
2023-04-25T21:16:58.241Z,101891.94
2023-04-25T21:19:33.293Z,101894.44
2023-04-25T21:22:07.381Z,101887.25
2023-04-25T21:24:40.234Z,101885.53
2023-04-25T21:27:12.866Z,101887.19
2023-04-25T21:29:46.520Z,101889.94
2023-04-25T21:32:21.863Z,101886.13
2023-04-25T21:34:54.528Z,101887.41
2023-04-25T21:37:28.622Z,101891.88
2023-04-25T21:40:01.391Z,101894.84
2023-04-25T21:42:34.718Z,101895.41
2023-04-25T21:45:09.036Z,101893.34
2023-04-25T21:47:41.682Z,101889.72
2023-04-25T21:50:15.189Z,101891.44
2023-04-25T21:52:49.313Z,101900.00
2023-04-25T21:55:22.599Z,101899.09
2023-04-25T21:57:55.319Z,101901.38
2023-04-25T22:00:28.350Z,101899.78
2023-04-25T22:03:01.441Z,101908.47
2023-04-25T22:05:34.969Z,101905.19
2023-04-25T22:08:09.321Z,101899.53
2023-04-25T22:10:42.763Z,101905.53
2023-04-25T22:13:16.372Z,101908.84
2023-04-25T22:15:49.708Z,101908.72
2023-04-25T22:18:22.628Z,101902.34
2023-04-25T22:20:55.461Z,101910.81
2023-04-25T22:23:29.469Z,101913.19
2023-04-25T22:26:02.524Z,101916.50
2023-04-25T22:28:35.844Z,101913.56
2023-04-25T22:31:08.691Z,101918.25
2023-04-25T22:33:44.678Z,101914.00
2023-04-25T22:36:17.798Z,101909.09
2023-04-25T22:38:52.709Z,101919.25
2023-04-25T22:41:25.964Z,101917.00
2023-04-25T22:43:58.629Z,101914.25
2023-04-25T22:46:31.388Z,101913.09
2023-04-25T22:49:04.699Z,101918.69
2023-04-25T22:51:37.946Z,101909.88
2023-04-25T22:54:11.942Z,101916.28
2023-04-25T22:56:45.212Z,101910.56
2023-04-25T22:59:18.195Z,101913.63
2023-04-25T23:01:51.527Z,101910.78
2023-04-25T23:04:25.172Z,101910.22
2023-04-25T23:06:58.513Z,101911.00
2023-04-25T23:09:34.266Z,101904.38
2023-04-25T23:12:07.609Z,101902.81
2023-04-25T23:14:40.243Z,101909.31
2023-04-25T23:17:13.110Z,101904.50
2023-04-25T23:19:46.686Z,101905.31
2023-04-25T23:22:19.305Z,101898.88
2023-04-25T23:24:53.423Z,101901.19
2023-04-25T23:27:26.133Z,101897.50
2023-04-25T23:29:58.890Z,101895.66
2023-04-25T23:32:31.894Z,101897.50
2023-04-25T23:35:05.301Z,101891.44
2023-04-25T23:37:39.142Z,101894.97
2023-04-25T23:40:13.610Z,101895.78
2023-04-25T23:42:46.470Z,101894.53
2023-04-25T23:45:19.114Z,101894.28
2023-04-25T23:47:52.533Z,101887.44
2023-04-25T23:50:25.341Z,101899.06
2023-04-25T23:52:58.005Z,101893.78
2023-04-25T23:55:32.528Z,101890.81
2023-04-25T23:58:06.197Z,101896.97
